createdAt,value
2022-09-12T00:00:33.167Z,99.90
2022-09-12T00:02:59.908Z,99.90
2022-09-12T00:05:27.440Z,99.90
2022-09-12T00:07:53.942Z,99.90
2022-09-12T00:10:20.456Z,99.90
2022-09-12T00:12:46.956Z,99.90
2022-09-12T00:15:13.667Z,99.90
2022-09-12T00:17:40.292Z,99.90
2022-09-12T00:20:09.328Z,99.90
2022-09-12T00:22:36.962Z,99.90
2022-09-12T00:25:04.770Z,99.90
2022-09-12T00:27:31.259Z,99.90
2022-09-12T00:29:57.752Z,99.90
2022-09-12T00:32:24.258Z,99.90
2022-09-12T00:34:50.727Z,99.90
2022-09-12T00:37:17.218Z,99.90
2022-09-12T00:39:43.963Z,99.90
2022-09-12T00:42:12.024Z,99.90
2022-09-12T00:44:50.359Z,99.90
2022-09-12T00:47:24.128Z,99.90
2022-09-12T00:50:08.780Z,99.90
2022-09-12T00:53:03.185Z,99.90
2022-09-12T00:55:40.906Z,99.90
2022-09-12T00:58:27.710Z,99.90
2022-09-12T01:00:54.895Z,99.90
2022-09-12T01:03:24.206Z,99.90
2022-09-12T01:06:08.758Z,99.90
2022-09-12T01:08:36.722Z,99.90
2022-09-12T01:11:05.269Z,99.90
2022-09-12T01:13:34.965Z,99.90
2022-09-12T01:16:05.807Z,99.90
2022-09-12T01:20:39.292Z,99.90
2022-09-12T01:29:30.874Z,99.90
2022-09-12T01:32:39.485Z,99.90
2022-09-12T01:39:49.077Z,99.90
2022-09-12T01:42:30.231Z,99.90
2022-09-12T01:46:47.468Z,99.90
2022-09-12T01:50:59.508Z,99.90
2022-09-12T01:53:36.032Z,99.90
2022-09-12T01:56:25.713Z,99.90
2022-09-12T01:59:08.388Z,99.90
2022-09-12T02:01:44.798Z,99.90
2022-09-12T02:04:19.356Z,99.90
2022-09-12T02:07:20.262Z,99.90
2022-09-12T02:12:48.039Z,99.90
2022-09-12T02:15:19.955Z,99.90
2022-09-12T02:17:51.457Z,99.90
2022-09-12T02:20:46.963Z,99.90
2022-09-12T02:23:27.000Z,99.90
2022-09-12T02:26:01.445Z,99.90
2022-09-12T02:28:39.883Z,99.90
2022-09-12T02:33:05.503Z,99.90
2022-09-12T02:39:33.403Z,99.90
2022-09-12T02:42:02.345Z,99.90
2022-09-12T02:44:31.300Z,99.90
2022-09-12T02:47:10.113Z,99.90
2022-09-12T02:49:36.771Z,99.90
2022-09-12T02:52:03.784Z,99.90
2022-09-12T02:54:30.707Z,99.90
2022-09-12T02:56:57.487Z,99.90
2022-09-12T02:59:25.644Z,99.90
2022-09-12T03:06:42.429Z,99.90
2022-09-12T03:10:13.158Z,99.90
2022-09-12T03:16:08.386Z,99.90
2022-09-12T03:20:52.629Z,99.90
2022-09-12T03:24:32.319Z,99.90
2022-09-12T03:28:52.461Z,99.90
2022-09-12T03:31:19.816Z,99.90
2022-09-12T03:33:46.403Z,99.90
2022-09-12T03:36:24.558Z,99.90
2022-09-12T03:38:51.359Z,99.90
2022-09-12T03:41:17.990Z,99.90
2022-09-12T03:43:44.900Z,99.90
2022-09-12T03:46:11.927Z,99.90
2022-09-12T03:48:38.575Z,99.90
2022-09-12T03:51:09.208Z,99.90
2022-09-12T03:53:36.026Z,99.90
2022-09-12T03:56:12.983Z,99.90
2022-09-12T03:58:39.794Z,99.90
2022-09-12T04:01:12.075Z,99.90
2022-09-12T04:03:47.882Z,99.90
2022-09-12T04:06:18.171Z,99.90
2022-09-12T04:08:48.387Z,99.90
2022-09-12T04:11:16.044Z,99.90
2022-09-12T04:13:45.229Z,99.90
2022-09-12T04:16:13.879Z,99.90
2022-09-12T04:18:41.126Z,99.90
2022-09-12T04:21:15.436Z,99.90
2022-09-12T04:23:44.818Z,99.90
2022-09-12T04:26:12.940Z,99.90
2022-09-12T04:28:40.819Z,99.90
2022-09-12T04:31:16.858Z,99.90
2022-09-12T04:33:46.451Z,99.90
2022-09-12T04:36:18.106Z,99.90
2022-09-12T04:38:46.960Z,99.90
2022-09-12T04:41:20.653Z,99.90
2022-09-12T04:43:52.307Z,99.90
2022-09-12T04:46:19.689Z,99.90
2022-09-12T04:48:53.285Z,99.90
2022-09-12T04:51:35.220Z,99.90
2022-09-12T04:54:06.961Z,99.90
2022-09-12T04:56:41.060Z,99.90
2022-09-12T04:59:08.429Z,99.90
2022-09-12T05:01:35.458Z,99.90
2022-09-12T05:04:03.080Z,99.90
2022-09-12T05:06:36.399Z,99.90
2022-09-12T05:09:05.688Z,99.90
2022-09-12T05:12:03.170Z,99.90
2022-09-12T05:14:31.817Z,99.90
2022-09-12T05:17:00.472Z,99.90
2022-09-12T05:19:27.979Z,99.90
2022-09-12T05:21:54.448Z,99.90
2022-09-12T05:24:20.957Z,99.90
2022-09-12T05:26:47.505Z,99.90
2022-09-12T05:29:13.977Z,99.90
2022-09-12T05:31:40.797Z,99.90
2022-09-12T05:34:08.518Z,99.90
2022-09-12T05:36:36.348Z,99.90
2022-09-12T05:39:03.884Z,99.90
2022-09-12T05:41:33.066Z,99.90
2022-09-12T05:44:02.974Z,99.90
2022-09-12T05:46:36.330Z,99.90
2022-09-12T05:49:09.361Z,99.90
2022-09-12T05:51:39.771Z,99.90
2022-09-12T05:54:09.214Z,99.90
2022-09-12T05:56:42.091Z,99.90
2022-09-12T05:59:16.755Z,99.90
2022-09-12T06:01:43.792Z,99.90
2022-09-12T06:04:11.342Z,99.90
2022-09-12T06:06:44.285Z,99.90
2022-09-12T06:09:12.634Z,99.90
2022-09-12T06:11:42.714Z,99.90
2022-09-12T06:14:12.673Z,99.90
2022-09-12T06:16:39.787Z,99.90
2022-09-12T06:19:19.391Z,99.90
2022-09-12T06:21:48.670Z,99.90
2022-09-12T06:24:20.149Z,99.90
2022-09-12T06:26:49.080Z,99.90
2022-09-12T06:29:16.013Z,99.90
2022-09-12T06:31:44.715Z,99.90
2022-09-12T06:34:14.602Z,99.90
2022-09-12T06:36:44.773Z,99.90
2022-09-12T06:39:22.180Z,99.90
2022-09-12T06:41:52.234Z,99.90
2022-09-12T06:44:22.127Z,99.90
2022-09-12T06:46:49.256Z,99.90
2022-09-12T06:49:16.957Z,99.90
2022-09-12T06:51:43.738Z,99.90
2022-09-12T06:54:14.631Z,99.90
2022-09-12T06:56:41.726Z,99.90
2022-09-12T06:59:08.280Z,99.90
2022-09-12T07:01:34.812Z,99.90
2022-09-12T07:04:03.851Z,99.90
2022-09-12T07:06:37.922Z,99.90
2022-09-12T07:09:09.080Z,99.90
2022-09-12T07:11:38.702Z,99.90
2022-09-12T07:14:07.721Z,99.90
2022-09-12T07:16:37.536Z,99.90
2022-09-12T07:19:06.755Z,99.90
2022-09-12T07:21:38.811Z,99.90
2022-09-12T07:24:07.999Z,99.90
2022-09-12T07:26:34.903Z,98.80
2022-09-12T07:29:19.097Z,99.10
2022-09-12T07:32:01.952Z,98.80
2022-09-12T07:34:28.450Z,98.30
2022-09-12T07:36:54.924Z,98.50
2022-09-12T07:39:21.398Z,98.20
2022-09-12T07:41:47.909Z,98.30
2022-09-12T07:44:14.413Z,97.60
2022-09-12T07:46:40.909Z,97.50
2022-09-12T07:49:08.390Z,97.20
2022-09-12T07:51:35.182Z,96.50
2022-09-12T07:54:02.007Z,96.00
2022-09-12T07:56:31.894Z,95.70
2022-09-12T07:58:59.310Z,95.40
2022-09-12T08:01:26.981Z,95.30
2022-09-12T08:03:58.547Z,94.60
2022-09-12T08:06:27.841Z,94.30
2022-09-12T08:08:56.663Z,93.30
2022-09-12T08:11:25.493Z,93.80
2022-09-12T08:13:55.763Z,92.10
2022-09-12T08:16:26.204Z,92.80
2022-09-12T08:18:52.907Z,92.20
2022-09-12T08:21:26.421Z,92.70
2022-09-12T08:24:00.065Z,92.10
2022-09-12T08:26:27.270Z,91.00
2022-09-12T08:28:54.860Z,91.80
2022-09-12T08:31:23.678Z,90.60
2022-09-12T08:33:51.142Z,90.30
2022-09-12T08:36:21.904Z,91.40
2022-09-12T08:38:58.719Z,90.90
2022-09-12T08:41:48.430Z,91.10
2022-09-12T08:45:16.697Z,89.90
2022-09-12T08:47:46.875Z,86.60
2022-09-12T08:50:21.521Z,88.20
2022-09-12T08:53:19.609Z,88.30
2022-09-12T08:55:58.397Z,89.70
2022-09-12T08:58:28.405Z,89.60
2022-09-12T09:01:38.459Z,90.10
2022-09-12T09:04:52.001Z,90.10
2022-09-12T09:10:07.135Z,91.50
2022-09-12T09:15:43.647Z,90.50
2022-09-12T09:18:31.698Z,90.80
2022-09-12T09:21:27.277Z,91.00
2022-09-12T09:24:04.162Z,90.10
2022-09-12T09:27:00.196Z,90.30
2022-09-12T09:29:53.652Z,90.60
2022-09-12T09:32:34.387Z,90.00
2022-09-12T09:35:15.111Z,90.70
2022-09-12T09:37:58.577Z,90.70
2022-09-12T09:40:59.490Z,91.00
2022-09-12T09:43:29.095Z,90.60
2022-09-12T09:45:59.641Z,90.00
2022-09-12T09:48:31.930Z,90.20
2022-09-12T09:51:08.109Z,89.30
2022-09-12T09:53:51.055Z,88.90
2022-09-12T09:58:09.262Z,90.50
2022-09-12T10:00:37.923Z,90.50
2022-09-12T10:03:30.363Z,90.20
2022-09-12T10:06:06.342Z,89.80
2022-09-12T10:08:37.725Z,88.50
2022-09-12T10:11:22.211Z,87.60
2022-09-12T10:13:56.367Z,87.90
2022-09-12T10:16:32.573Z,87.10
2022-09-12T10:19:02.453Z,85.60
2022-09-12T10:21:47.053Z,87.90
2022-09-12T10:25:00.263Z,89.00
2022-09-12T10:27:35.238Z,89.30
2022-09-12T10:30:20.837Z,90.00
2022-09-12T10:32:50.224Z,89.80
2022-09-12T10:35:23.461Z,88.60
2022-09-12T10:38:04.612Z,87.90
2022-09-12T10:40:40.162Z,87.30
2022-09-12T10:43:40.043Z,86.40
2022-09-12T10:47:21.633Z,87.20
2022-09-12T10:49:50.404Z,88.60
2022-09-12T10:52:24.931Z,86.20
2022-09-12T10:54:52.085Z,87.80
2022-09-12T11:01:33.299Z,86.20
2022-09-12T11:05:17.406Z,85.50
2022-09-12T11:09:31.698Z,83.30
2022-09-12T11:14:54.895Z,84.10
2022-09-12T11:21:44.257Z,82.20
2022-09-12T11:25:01.533Z,86.00
2022-09-12T11:29:31.449Z,84.30
2022-09-12T11:35:24.035Z,83.20
2022-09-12T11:40:47.943Z,81.50
2022-09-12T11:43:51.157Z,83.10
2022-09-12T11:46:39.971Z,81.20
2022-09-12T11:49:42.471Z,81.80
2022-09-12T11:52:24.387Z,81.90
2022-09-12T11:55:27.392Z,81.20
2022-09-12T11:57:57.837Z,81.60
2022-09-12T12:00:44.321Z,80.40
2022-09-12T12:05:58.455Z,81.50
2022-09-12T12:08:29.214Z,79.60
2022-09-12T12:11:07.401Z,78.40
2022-09-12T12:14:32.534Z,75.70
2022-09-12T12:16:59.297Z,75.60
2022-09-12T12:19:37.316Z,75.60
2022-09-12T12:22:22.319Z,77.90
2022-09-12T12:25:50.954Z,78.00
2022-09-12T12:28:58.467Z,76.10
2022-09-12T12:31:25.004Z,77.60
2022-09-12T12:33:59.943Z,78.20
2022-09-12T12:36:39.483Z,78.00
2022-09-12T12:40:25.684Z,80.40
2022-09-12T12:43:05.317Z,78.40
2022-09-12T12:46:00.768Z,78.00
2022-09-12T12:48:33.039Z,78.60
2022-09-12T12:51:44.897Z,78.90
2022-09-12T12:54:55.637Z,79.00
2022-09-12T12:57:46.848Z,78.00
2022-09-12T13:02:05.308Z,79.70
2022-09-12T13:04:33.253Z,79.30
2022-09-12T13:07:08.644Z,81.00
2022-09-12T13:09:46.759Z,79.70
2022-09-12T13:12:33.560Z,79.70
2022-09-12T13:15:03.488Z,79.50
2022-09-12T13:17:40.808Z,80.50
2022-09-12T13:20:31.670Z,78.70
2022-09-12T13:22:58.762Z,79.30
2022-09-12T13:25:36.556Z,77.40
2022-09-12T13:28:21.516Z,79.00
2022-09-12T13:31:22.231Z,78.30
2022-09-12T13:33:53.989Z,78.80
2022-09-12T13:37:39.388Z,78.20
2022-09-12T13:42:23.951Z,76.20
2022-09-12T13:45:02.396Z,77.20
2022-09-12T13:47:36.795Z,78.20
2022-09-12T13:50:06.636Z,78.40
2022-09-12T13:52:37.521Z,80.30
2022-09-12T13:55:37.053Z,79.30
2022-09-12T13:58:25.958Z,79.00
2022-09-12T14:01:14.663Z,79.00
2022-09-12T14:04:11.135Z,76.80
2022-09-12T14:06:50.545Z,75.00
2022-09-12T14:09:39.087Z,76.70
2022-09-12T14:12:26.328Z,77.00
2022-09-12T14:14:53.602Z,78.90
2022-09-12T14:17:38.650Z,76.20
2022-09-12T14:20:13.632Z,76.60
2022-09-12T14:22:41.248Z,77.70
2022-09-12T14:25:17.179Z,76.20
2022-09-12T14:27:50.337Z,75.60
2022-09-12T14:30:33.654Z,77.10
2022-09-12T14:33:19.364Z,75.20
2022-09-12T14:36:06.430Z,75.80
2022-09-12T14:38:46.579Z,78.60
2022-09-12T14:41:40.142Z,79.00
2022-09-12T14:44:18.465Z,79.30
2022-09-12T14:46:45.244Z,76.40
2022-09-12T14:51:05.490Z,76.90
2022-09-12T14:53:37.215Z,78.40
2022-09-12T14:56:12.338Z,77.90
2022-09-12T14:58:41.590Z,78.50
2022-09-12T15:01:24.066Z,78.20
2022-09-12T15:03:54.698Z,79.70
2022-09-12T15:06:32.846Z,79.20
2022-09-12T15:09:05.199Z,79.10
2022-09-12T15:11:33.017Z,78.80
2022-09-12T15:14:12.722Z,77.40
2022-09-12T15:16:39.181Z,79.70
2022-09-12T15:19:05.656Z,79.30
2022-09-12T15:21:32.408Z,80.20
2022-09-12T15:23:58.873Z,79.60
2022-09-12T15:26:29.794Z,79.50
2022-09-12T15:28:56.296Z,79.60
2022-09-12T15:31:31.556Z,80.10
2022-09-12T15:34:01.259Z,79.30
2022-09-12T15:36:28.525Z,79.10
2022-09-12T15:38:55.778Z,80.80
2022-09-12T15:41:34.858Z,83.50
2022-09-12T15:44:07.239Z,82.60
2022-09-12T15:46:34.233Z,83.00
2022-09-12T15:49:00.748Z,82.50
2022-09-12T15:51:27.267Z,82.00
2022-09-12T15:53:53.777Z,81.10
2022-09-12T15:56:21.829Z,85.10
2022-09-12T15:58:58.803Z,84.90
2022-09-12T16:01:28.187Z,85.40
2022-09-12T16:03:54.820Z,85.00
2022-09-12T16:06:21.785Z,85.60
2022-09-12T16:08:48.547Z,86.10
2022-09-12T16:11:23.370Z,85.80
2022-09-12T16:13:52.350Z,86.30
2022-09-12T16:16:18.903Z,89.20
2022-09-12T16:18:45.467Z,90.70
2022-09-12T16:21:15.291Z,89.10
2022-09-12T16:23:43.951Z,90.60
2022-09-12T16:26:10.627Z,90.80
2022-09-12T16:28:37.348Z,90.20
2022-09-12T16:31:06.916Z,91.10
2022-09-12T16:33:33.823Z,91.10
2022-09-12T16:36:19.627Z,92.00
2022-09-12T16:38:52.285Z,94.30
2022-09-12T16:41:22.292Z,94.20
2022-09-12T16:43:49.009Z,95.00
2022-09-12T16:46:29.717Z,96.00
2022-09-12T16:48:58.053Z,96.40
2022-09-12T16:51:31.165Z,97.20
2022-09-12T16:53:58.101Z,98.40
2022-09-12T16:56:24.958Z,96.90
2022-09-12T16:58:51.980Z,96.60
2022-09-12T17:01:22.201Z,97.00
2022-09-12T17:03:52.921Z,97.20
2022-09-12T17:06:19.961Z,96.80
2022-09-12T17:08:53.502Z,97.10
2022-09-12T17:11:26.627Z,97.20
2022-09-12T17:14:11.759Z,97.20
2022-09-12T17:16:42.346Z,98.40
2022-09-12T17:19:17.595Z,99.20
2022-09-12T17:21:47.912Z,99.80
2022-09-12T17:24:15.687Z,99.90
2022-09-12T17:26:42.292Z,99.90
2022-09-12T17:29:11.565Z,99.90
2022-09-12T17:31:38.086Z,99.90
2022-09-12T17:34:04.592Z,99.70
2022-09-12T17:36:32.184Z,99.70
2022-09-12T17:39:01.039Z,99.70
2022-09-12T17:41:31.123Z,99.70
2022-09-12T17:44:00.585Z,99.90
2022-09-12T17:46:35.367Z,99.90
2022-09-12T17:49:05.413Z,99.90
2022-09-12T17:51:32.023Z,99.90
2022-09-12T17:54:02.079Z,99.90
2022-09-12T17:56:32.278Z,99.90
2022-09-12T17:59:01.057Z,99.90
2022-09-12T18:01:47.487Z,99.90
2022-09-12T18:04:14.996Z,99.90
2022-09-12T18:06:47.097Z,99.90
2022-09-12T18:09:18.617Z,99.90
2022-09-12T18:11:46.349Z,99.90
2022-09-12T18:14:14.378Z,99.90
2022-09-12T18:16:41.676Z,99.90
2022-09-12T18:19:08.503Z,99.90
2022-09-12T18:21:35.226Z,99.90
2022-09-12T18:24:03.372Z,99.90
2022-09-12T18:26:30.914Z,99.90
2022-09-12T18:28:58.118Z,99.90
2022-09-12T18:31:29.017Z,99.90
2022-09-12T18:33:56.908Z,99.90
2022-09-12T18:36:23.763Z,99.90
2022-09-12T18:38:50.263Z,99.90
2022-09-12T18:41:21.263Z,99.90
2022-09-12T18:43:52.503Z,99.90
2022-09-12T18:46:19.246Z,99.90
2022-09-12T18:48:46.546Z,99.90
2022-09-12T18:51:24.626Z,99.90
2022-09-12T18:53:57.900Z,99.90
2022-09-12T18:56:31.443Z,99.90
2022-09-12T18:58:58.964Z,99.90
2022-09-12T19:01:29.259Z,99.90
2022-09-12T19:03:56.927Z,99.90
2022-09-12T19:06:27.591Z,99.90
2022-09-12T19:08:56.134Z,99.90
2022-09-12T19:11:25.153Z,99.90
2022-09-12T19:13:53.485Z,99.90
2022-09-12T19:16:26.575Z,99.90
2022-09-12T19:18:55.639Z,99.90
2022-09-12T19:21:26.628Z,99.90
2022-09-12T19:23:58.297Z,99.90
2022-09-12T19:26:25.504Z,99.90
2022-09-12T19:28:53.441Z,99.90
2022-09-12T19:31:21.227Z,99.90
2022-09-12T19:33:48.961Z,99.90
2022-09-12T19:36:41.141Z,99.90
2022-09-12T19:39:10.706Z,99.90
2022-09-12T19:41:37.211Z,99.90
2022-09-12T19:44:04.847Z,99.90
2022-09-12T19:46:31.489Z,99.90
2022-09-12T19:48:58.143Z,99.90
2022-09-12T19:51:24.713Z,99.90
2022-09-12T19:53:52.186Z,99.90
2022-09-12T19:56:18.998Z,99.90
2022-09-12T19:58:52.072Z,99.90
2022-09-12T20:01:25.087Z,99.90
2022-09-12T20:03:53.086Z,99.90
2022-09-12T20:06:20.254Z,99.90
2022-09-12T20:08:46.832Z,99.90
2022-09-12T20:11:16.842Z,99.90
2022-09-12T20:13:45.116Z,99.90
2022-09-12T20:16:21.078Z,99.90
2022-09-12T20:18:53.893Z,99.90
2022-09-12T20:21:24.405Z,99.90
2022-09-12T20:23:51.033Z,99.90
2022-09-12T20:26:19.381Z,99.90
2022-09-12T20:28:45.951Z,99.90
2022-09-12T20:31:16.062Z,99.90
2022-09-12T20:33:43.747Z,99.90
2022-09-12T20:36:14.560Z,99.90
2022-09-12T20:38:50.656Z,99.90
2022-09-12T20:41:19.638Z,99.90
2022-09-12T20:43:50.457Z,99.90
2022-09-12T20:46:21.437Z,99.90
2022-09-12T20:48:49.582Z,99.90
2022-09-12T20:51:16.172Z,99.90
2022-09-12T20:53:42.712Z,99.90
2022-09-12T20:56:09.236Z,99.90
2022-09-12T20:58:38.320Z,99.90
2022-09-12T21:01:08.262Z,99.90
2022-09-12T21:03:38.812Z,99.90
2022-09-12T21:06:06.749Z,99.90
2022-09-12T21:08:34.399Z,99.90
2022-09-12T21:11:01.439Z,99.90
2022-09-12T21:13:29.244Z,99.90
2022-09-12T21:16:12.323Z,99.90
2022-09-12T21:18:40.314Z,99.90
2022-09-12T21:21:08.730Z,99.90
2022-09-12T21:23:35.279Z,99.90
2022-09-12T21:26:03.181Z,99.90
2022-09-12T21:28:30.258Z,99.90
2022-09-12T21:30:57.096Z,99.90
2022-09-12T21:33:23.696Z,99.90
2022-09-12T21:35:50.513Z,99.90
2022-09-12T21:38:18.939Z,99.90
2022-09-12T21:40:46.183Z,99.90
2022-09-12T21:43:13.407Z,99.90
2022-09-12T21:45:41.448Z,99.90
2022-09-12T21:48:08.004Z,99.90
2022-09-12T21:50:34.899Z,99.90
2022-09-12T21:53:01.430Z,99.90
2022-09-12T21:55:27.892Z,99.90
2022-09-12T21:57:55.645Z,99.90
2022-09-12T22:00:22.853Z,99.90
2022-09-12T22:02:49.508Z,99.90
2022-09-12T22:05:16.514Z,99.90
2022-09-12T22:07:43.197Z,99.90
2022-09-12T22:10:10.069Z,99.90
2022-09-12T22:12:36.595Z,99.90
2022-09-12T22:15:22.977Z,99.90
2022-09-12T22:18:06.632Z,99.90
2022-09-12T22:20:33.135Z,99.90
2022-09-12T22:23:21.171Z,99.90
2022-09-12T22:25:50.388Z,99.90
2022-09-12T22:28:16.849Z,99.90
2022-09-12T22:30:47.820Z,99.90
2022-09-12T22:33:14.349Z,99.90
2022-09-12T22:35:41.637Z,99.90
2022-09-12T22:38:08.400Z,99.90
2022-09-12T22:40:35.118Z,99.90
2022-09-12T22:43:01.592Z,99.90
2022-09-12T22:45:28.070Z,99.90
2022-09-12T22:47:57.159Z,99.90
2022-09-12T22:50:25.682Z,99.90
2022-09-12T22:52:53.087Z,99.90
2022-09-12T22:55:19.538Z,99.90
2022-09-12T22:57:46.013Z,99.90
2022-09-12T23:00:13.400Z,99.90
2022-09-12T23:02:39.873Z,99.90
2022-09-12T23:05:06.765Z,99.90
2022-09-12T23:07:33.282Z,99.90
2022-09-12T23:10:00.365Z,99.90
2022-09-12T23:12:26.857Z,99.90
2022-09-12T23:14:53.336Z,99.90
2022-09-12T23:17:19.796Z,99.90
2022-09-12T23:19:46.276Z,99.90
2022-09-12T23:22:12.749Z,99.90
2022-09-12T23:24:39.255Z,99.90
2022-09-12T23:27:05.755Z,99.90
2022-09-12T23:29:34.520Z,99.90
2022-09-12T23:32:02.976Z,99.90
2022-09-12T23:34:30.183Z,99.90
2022-09-12T23:36:56.713Z,99.90
2022-09-12T23:39:23.259Z,99.90
2022-09-12T23:41:50.166Z,99.90
2022-09-12T23:44:16.672Z,99.90
2022-09-12T23:46:43.224Z,99.90
2022-09-12T23:49:09.690Z,99.90
2022-09-12T23:51:36.151Z,99.90
2022-09-12T23:54:02.805Z,99.90
2022-09-12T23:56:29.242Z,99.90
2022-09-12T23:58:55.741Z,99.90
